TPOK1: Kansas River, State-Line, KS

                                SHEF ID:       TPOK1     MARAIS DES CYGNES R NR KS-MO ST
STATION TYPE:

STAGE STAGE(2) RIV-FLOW BAT-LOAD
ft ft cfs volt
Ccp-Rev Ccp-Rev Ccp-Rev Ccp-Rev
(America/Chicago)
07/11 00:00 9.25 9.22 2930 12.53
07/11 01:00 9.24 9.21 2923 12.48
07/11 02:00 9.19 9.19 2889 12.47
07/11 03:00 9.18 9.16 2882 12.44
07/11 04:00 9.14 9.08 2856 12.44
07/11 05:00 9.06 9.09 2802 12.40
07/11 06:00 9.03 8.99 2782 12.38
07/11 07:00 8.94 8.96 2722 12.40
07/11 08:00 8.88 8.88 2683 12.40
07/11 09:00 8.82 8.79 2643 12.86
07/11 10:00 8.76 8.75 2604 13.27
07/11 11:00 8.68 8.65 2552 12.86
07/11 12:00 8.61 8.61 2507 13.34
07/11 13:00 8.54 8.53 2462 13.28
07/11 14:00 8.46 8.43 2412 13.23
07/11 15:00 8.40 8.39 2374 12.99
07/11 16:00 8.33 8.30 2330 13.00
07/11 17:00 8.25 8.25 2280 12.98
07/11 18:00 8.19 8.17 2243 12.96
07/11 19:00 8.10 8.08 2188 12.73
07/11 20:00 8.04 8.01 2151 12.62
07/11 21:00 7.97 7.93 2109 12.57
07/11 22:00 7.89 7.86 2061 12.57
07/11 23:00 7.82 7.79 2019 12.53
Data processed at Sun 12Jul2026 04:52 GMT

NOTICE: If you are parsing this page

Please convert to using our Data API. Starting early 2026 we will be migrating to: https://water.usace.army.mil with modern pages rendered in JavaScript. When this migration completes you will no longer be able to scrape this page! CWMSDataAPI (CDA)

Timeseries IDs (TSIDs)

TSIDs used from left to right in the data table
MKSL.Stage.Inst.1Hour.0.Ccp-Rev
MKSL.Stage-Alt.Inst.1Hour.0.Ccp-Rev
MKSL.Flow.Inst.1Hour.0.Ccp-Rev
MKSL.Volt-Battery Load.Inst.1Hour.0.Ccp-Rev

                            

All information presented herein is the property of the government of the United States of America and may be revised or deleted at any time without prior notice. Dissemination of this information without the expressed written consent of the Public Affairs Office, Tulsa District U.S. Army Corps of Engineers is strictly prohibited. These data are gathered electronically and, as presented, have NOT undergone any form of quality control. These data are NOT guaranteed to be valid or correct.